Time;durP1;ratioP1;P1;durP2;ratioP2;P2;SDS_P1;SDS_P2;PMS_P1;PMS_P2;Temp;Humidity;BMP_temperature;BMP_pressure;BME280_temperature;BME280_humidity;BME280_pressure;Samples;Min_cycle;Max_cycle;Signal;HPM_P1;HPM_P2
2021/08/07 00:00:24;;;;;;;;;;;13.70;97.00;;;;;;3491453;28;35129;-66
2021/08/07 00:02:51;;;;;;;;;;;13.80;96.80;;;;;;3488652;28;27056;-67
2021/08/07 00:05:17;;;;;;;;;;;13.80;96.30;;;;;;3509367;28;30067;-65
2021/08/07 00:07:44;;;;;;;;;;;13.70;96.60;;;;;;3492323;28;26942;-66
2021/08/07 00:10:11;;;;;;;;;;;13.90;96.70;;;;;;3489758;28;27589;-67
2021/08/07 00:12:38;;;;;;;;;;;14.00;96.20;;;;;;3469979;28;33080;-68
2021/08/07 00:15:05;;;;;;;;;;;14.00;96.10;;;;;;3474354;28;26969;-67
2021/08/07 00:17:32;;;;;;;;;;;14.10;96.10;;;;;;3463249;28;27303;-69
2021/08/07 00:19:59;;;;;;;;;;;14.20;96.00;;;;;;3461742;28;29127;-66
2021/08/07 00:22:25;;;;;;;;;;;14.20;95.50;;;;;;3455551;28;30154;-65
2021/08/07 00:24:52;;;;;;;;;;;14.20;95.40;;;;;;3466491;28;35054;-65
2021/08/07 00:27:19;;;;;;;;;;;14.30;95.20;;;;;;3483392;28;29101;-68
2021/08/07 00:29:45;;;;;;;;;;;14.30;95.30;;;;;;3482611;28;33067;-66
2021/08/07 00:32:12;;;;;;;;;;;14.30;95.00;;;;;;3468604;28;31598;-65
2021/08/07 00:34:39;;;;;;;;;;;14.40;94.90;;;;;;3469795;28;43069;-66
2021/08/07 00:37:06;;;;;;;;;;;14.50;95.10;;;;;;3480209;28;31624;-66
2021/08/07 00:39:33;;;;;;;;;;;14.50;94.70;;;;;;3484460;28;29074;-66
2021/08/07 00:42:00;;;;;;;;;;;14.60;94.80;;;;;;3467309;28;27167;-66
2021/08/07 00:44:26;;;;;;;;;;;14.70;94.80;;;;;;3435586;28;31861;-64
2021/08/07 00:46:53;;;;;;;;;;;14.80;94.70;;;;;;3452612;28;31986;-67
2021/08/07 00:49:20;;;;;;;;;;;14.70;94.70;;;;;;3447643;28;29074;-66
2021/08/07 00:51:47;;;;;;;;;;;14.80;94.40;;;;;;3445721;28;34078;-65
2021/08/07 00:54:14;;;;;;;;;;;14.90;94.60;;;;;;3411951;28;34057;-65
2021/08/07 00:56:40;;;;;;;;;;;15.00;94.20;;;;;;3409914;28;33119;-66
2021/08/07 00:59:07;;;;;;;;;;;15.10;93.70;;;;;;3385401;28;31141;-65
2021/08/07 01:02:05;;;;;;;;;;;15.20;93.50;;;;;;3462286;27;44106;-67
2021/08/07 01:04:42;;;;;;;;;;;15.30;93.40;;;;;;3433711;28;26994;-65
2021/08/07 01:07:21;;;;;;;;;;;15.30;92.90;;;;;;3378993;28;29086;-67
2021/08/07 01:10:06;;;;;;;;;;;15.40;92.90;;;;;;3443031;28;31971;-67
2021/08/07 01:12:32;;;;;;;;;;;15.40;93.00;;;;;;3372198;28;36065;-67
2021/08/07 01:15:01;;;;;;;;;;;15.60;92.30;;;;;;3346003;28;34125;-67
2021/08/07 01:17:29;;;;;;;;;;;15.60;92.40;;;;;;3370065;28;27506;-66
2021/08/07 01:20:11;;;;;;;;;;;15.70;92.40;;;;;;3450084;28;38070;-66
2021/08/07 01:22:56;;;;;;;;;;;15.70;92.10;;;;;;3435294;28;27061;-65
2021/08/07 01:25:24;;;;;;;;;;;16.00;91.90;;;;;;3424910;28;34151;-69
2021/08/07 01:27:50;;;;;;;;;;;16.10;91.20;;;;;;3390245;28;36058;-67
2021/08/07 01:30:19;;;;;;;;;;;16.10;91.20;;;;;;3385599;28;27917;-66
2021/08/07 01:32:46;;;;;;;;;;;16.20;91.50;;;;;;3403376;28;33091;-68
2021/08/07 01:35:13;;;;;;;;;;;16.40;90.60;;;;;;3380822;28;27253;-66
2021/08/07 01:37:41;;;;;;;;;;;16.30;90.70;;;;;;3433999;28;35054;-65
2021/08/07 01:40:08;;;;;;;;;;;16.40;90.90;;;;;;3461412;28;39110;-66
2021/08/07 01:42:35;;;;;;;;;;;16.40;90.40;;;;;;3461010;28;29102;-66
2021/08/07 01:45:02;;;;;;;;;;;16.50;90.50;;;;;;3380183;28;39155;-67
2021/08/07 01:47:49;;;;;;;;;;;16.80;90.30;;;;;;3378734;28;31153;-67
2021/08/07 01:50:29;;;;;;;;;;;16.90;89.90;;;;;;3381442;28;36370;-67
2021/08/07 01:52:59;;;;;;;;;;;17.10;89.00;;;;;;3396162;28;34148;-67
2021/08/07 01:55:28;;;;;;;;;;;17.00;88.30;;;;;;3451908;28;34107;-67
2021/08/07 01:57:58;;;;;;;;;;;17.00;88.50;;;;;;3433766;28;30063;-67
2021/08/07 02:00:25;;;;;;;;;;;17.20;87.90;;;;;;3380804;28;27086;-68
2021/08/07 02:02:53;;;;;;;;;;;17.30;87.10;;;;;;3416349;28;31942;-67
2021/08/07 02:05:20;;;;;;;;;;;17.40;88.30;;;;;;3413601;28;31151;-67
2021/08/07 02:07:49;;;;;;;;;;;17.40;87.70;;;;;;3403723;28;31145;-66
2021/08/07 02:10:16;;;;;;;;;;;17.20;87.10;;;;;;3425863;28;33135;-66
2021/08/07 02:12:43;;;;;;;;;;;17.40;87.50;;;;;;3429736;28;35101;-66
2021/08/07 02:15:10;;;;;;;;;;;17.80;85.80;;;;;;3430536;28;28004;-67
2021/08/07 02:17:39;;;;;;;;;;;17.80;85.10;;;;;;3418891;28;36815;-66
2021/08/07 02:20:06;;;;;;;;;;;17.70;85.00;;;;;;3431099;28;39128;-67
2021/08/07 02:22:33;;;;;;;;;;;17.90;84.10;;;;;;3463562;28;35859;-67
2021/08/07 02:25:00;;;;;;;;;;;17.90;84.50;;;;;;3443524;28;38104;-69
2021/08/07 02:27:27;;;;;;;;;;;18.30;83.30;;;;;;3445944;28;30076;-66
2021/08/07 02:29:53;;;;;;;;;;;18.50;81.00;;;;;;3448599;28;30109;-68
2021/08/07 02:32:20;;;;;;;;;;;18.60;81.70;;;;;;3451957;28;27035;-69
2021/08/07 02:34:47;;;;;;;;;;;18.20;82.30;;;;;;3412244;28;26959;-67
2021/08/07 02:37:14;;;;;;;;;;;18.20;82.60;;;;;;3426898;28;31494;-68
2021/08/07 02:39:41;;;;;;;;;;;18.40;81.70;;;;;;3411147;28;34167;-68
2021/08/07 02:42:08;;;;;;;;;;;18.60;81.40;;;;;;3438198;28;34124;-67
2021/08/07 02:44:35;;;;;;;;;;;18.60;80.20;;;;;;3447347;28;32068;-67
2021/08/07 02:47:02;;;;;;;;;;;18.60;80.80;;;;;;3452404;28;34112;-67
2021/08/07 02:49:28;;;;;;;;;;;18.40;79.50;;;;;;3456753;28;29051;-69
2021/08/07 02:51:55;;;;;;;;;;;18.30;79.90;;;;;;3458810;28;34062;-68
2021/08/07 02:54:22;;;;;;;;;;;18.40;80.10;;;;;;3480761;28;36373;-67
2021/08/07 02:56:49;;;;;;;;;;;18.60;79.70;;;;;;3441917;28;36435;-68
2021/08/07 02:59:16;;;;;;;;;;;18.50;79.20;;;;;;3474792;28;35702;-67
2021/08/07 03:01:42;;;;;;;;;;;18.50;79.20;;;;;;3411599;28;38101;-67
2021/08/07 03:04:09;;;;;;;;;;;18.60;79.30;;;;;;3477654;28;38134;-68
2021/08/07 03:06:36;;;;;;;;;;;18.70;78.60;;;;;;3462232;28;26948;-68
2021/08/07 03:09:03;;;;;;;;;;;18.70;78.80;;;;;;3452386;28;36036;-69
2021/08/07 03:11:29;;;;;;;;;;;18.70;78.20;;;;;;3428766;28;39115;-69
2021/08/07 03:13:56;;;;;;;;;;;18.60;78.50;;;;;;3439185;28;29120;-69
2021/08/07 03:16:23;;;;;;;;;;;19.00;77.50;;;;;;3449559;28;39092;-67
2021/08/07 03:18:49;;;;;;;;;;;19.20;78.70;;;;;;3497045;28;32047;-67
2021/08/07 03:21:16;;;;;;;;;;;19.40;77.70;;;;;;3587010;28;35085;-66
2021/08/07 03:23:43;;;;;;;;;;;19.60;76.50;;;;;;3573397;28;34064;-67
2021/08/07 03:26:10;;;;;;;;;;;19.70;76.50;;;;;;3569257;28;33161;-67
2021/08/07 03:28:37;;;;;;;;;;;19.90;75.90;;;;;;3583337;28;32023;-66
2021/08/07 03:31:04;;;;;;;;;;;19.80;75.30;;;;;;3574388;28;29058;-68
2021/08/07 03:33:31;;;;;;;;;;;20.10;75.40;;;;;;3576826;28;31131;-68
2021/08/07 03:35:57;;;;;;;;;;;20.50;74.80;;;;;;3570680;28;26979;-67
2021/08/07 03:38:24;;;;;;;;;;;20.60;74.00;;;;;;3533432;28;35133;-66
2021/08/07 03:40:51;;;;;;;;;;;20.50;73.30;;;;;;3541322;28;34074;-67
2021/08/07 03:43:18;;;;;;;;;;;20.40;73.80;;;;;;3547461;28;35104;-67
2021/08/07 03:45:44;;;;;;;;;;;20.50;73.90;;;;;;3540661;28;44147;-68
2021/08/07 03:48:11;;;;;;;;;;;21.00;72.90;;;;;;3553347;28;35069;-68
2021/08/07 03:50:38;;;;;;;;;;;21.10;72.50;;;;;;3553384;28;35119;-67
2021/08/07 03:53:04;;;;;;;;;;;21.10;72.30;;;;;;3531470;28;40534;-67
2021/08/07 03:55:31;;;;;;;;;;;20.90;72.60;;;;;;3577728;28;35102;-66
2021/08/07 03:57:59;;;;;;;;;;;21.00;72.60;;;;;;3611780;28;29157;-67
2021/08/07 04:00:27;;;;;;;;;;;21.30;72.30;;;;;;3621370;28;28091;-67
2021/08/07 04:02:54;;;;;;;;;;;21.70;70.80;;;;;;3605753;28;38154;-66
2021/08/07 04:05:20;;;;;;;;;;;22.20;70.30;;;;;;3622532;28;34124;-66
2021/08/07 04:07:47;;;;;;;;;;;21.40;71.40;;;;;;3624644;28;34099;-66
2021/08/07 04:10:15;;;;;;;;;;;21.40;71.20;;;;;;3624475;28;31057;-66
2021/08/07 04:12:41;;;;;;;;;;;21.40;70.80;;;;;;3621387;28;35141;-68
2021/08/07 04:15:08;;;;;;;;;;;21.20;71.60;;;;;;3637883;28;28405;-65
2021/08/07 04:17:36;;;;;;;;;;;21.00;71.30;;;;;;3649668;28;36139;-68
2021/08/07 04:20:06;;;;;;;;;;;21.10;70.90;;;;;;3654577;28;34069;-67
2021/08/07 04:22:33;;;;;;;;;;;21.30;71.00;;;;;;3654605;28;32871;-68
2021/08/07 04:24:59;;;;;;;;;;;21.90;69.30;;;;;;3641275;28;29097;-69
2021/08/07 04:27:26;;;;;;;;;;;21.60;70.20;;;;;;3647198;28;28367;-68
2021/08/07 04:29:53;;;;;;;;;;;21.40;70.70;;;;;;3635911;28;35057;-68
2021/08/07 04:32:19;;;;;;;;;;;21.40;69.70;;;;;;3641352;28;27118;-68
2021/08/07 04:34:46;;;;;;;;;;;21.70;68.90;;;;;;3624508;28;34068;-66
2021/08/07 04:37:13;;;;;;;;;;;21.80;68.90;;;;;;3626143;28;27717;-68
2021/08/07 04:39:40;;;;;;;;;;;22.00;68.80;;;;;;3626789;28;31585;-67
2021/08/07 04:42:07;;;;;;;;;;;22.50;69.20;;;;;;3640816;28;34093;-67
2021/08/07 04:44:34;;;;;;;;;;;22.70;67.60;;;;;;3662613;28;34063;-67
2021/08/07 04:47:00;;;;;;;;;;;22.60;67.90;;;;;;3607678;28;29097;-67
2021/08/07 04:49:27;;;;;;;;;;;22.50;68.40;;;;;;3598764;28;32062;-67
2021/08/07 04:51:54;;;;;;;;;;;22.20;68.10;;;;;;3614014;28;31168;-67
2021/08/07 04:54:20;;;;;;;;;;;22.10;68.50;;;;;;3600033;28;35080;-68
2021/08/07 04:56:47;;;;;;;;;;;22.70;67.60;;;;;;3596688;28;28082;-67
2021/08/07 04:59:14;;;;;;;;;;;22.70;67.80;;;;;;3600345;28;27796;-68
2021/08/07 05:01:40;;;;;;;;;;;22.60;67.50;;;;;;3601976;28;35080;-68
2021/08/07 05:04:07;;;;;;;;;;;22.70;67.10;;;;;;3586646;28;34089;-67
2021/08/07 05:06:34;;;;;;;;;;;22.60;66.90;;;;;;3594218;28;30119;-67
2021/08/07 05:09:00;;;;;;;;;;;22.40;67.20;;;;;;3595324;28;31113;-67
2021/08/07 05:11:27;;;;;;;;;;;22.40;67.20;;;;;;3618809;28;31059;-67
2021/08/07 05:13:54;;;;;;;;;;;22.70;66.60;;;;;;3613260;28;32719;-67
2021/08/07 05:16:21;;;;;;;;;;;22.60;66.40;;;;;;3605380;28;30072;-67
2021/08/07 05:18:47;;;;;;;;;;;22.80;67.00;;;;;;3605897;28;29142;-67
2021/08/07 05:21:15;;;;;;;2.55;1.08;;;23.90;65.20;;;;;;3738888;28;34091;-67
2021/08/07 05:23:42;;;;;;;3.43;0.93;;;24.40;64.40;;;;;;5092167;28;20178;-67
2021/08/07 05:26:09;;;;;;;3.10;1.00;;;24.00;64.40;;;;;;5080035;28;20182;-68
2021/08/07 05:28:37;;;;;;;1.50;1.10;;;24.50;63.90;;;;;;5089601;28;20174;-67
2021/08/07 05:31:04;;;;;;;1.83;1.00;;;24.50;63.90;;;;;;5090572;28;20185;-67
2021/08/07 05:33:31;;;;;;;1.07;0.90;;;23.90;64.20;;;;;;5090278;28;20179;-67
2021/08/07 05:35:58;;;;;;;0.80;0.80;;;24.00;64.70;;;;;;5078024;28;20183;-67
2021/08/07 05:38:26;;;;;;;2.63;1.23;;;24.60;63.10;;;;;;5076674;28;20218;-66
2021/08/07 05:40:53;;;;;;;1.87;1.07;;;24.30;63.40;;;;;;5090168;28;20302;-67
2021/08/07 05:43:20;;;;;;;3.03;0.93;;;23.80;64.20;;;;;;5090290;28;20281;-67
2021/08/07 05:45:48;;;;;;;4.27;1.10;;;23.60;64.30;;;;;;5091308;28;20186;-67
2021/08/07 05:48:18;;;;;;;2.93;1.20;;;24.30;64.30;;;;;;5094130;28;20182;-67
2021/08/07 05:50:45;;;;;;;1.43;1.00;;;24.50;63.10;;;;;;5094797;28;20640;-68
2021/08/07 05:53:13;;;;;;;0.97;0.87;;;24.30;62.90;;;;;;5094911;28;20233;-67
2021/08/07 05:55:40;;;;;;;3.83;2.00;;;24.90;62.00;;;;;;5094538;28;20187;-67
2021/08/07 05:58:08;;;;;;;2.27;1.50;;;24.70;62.60;;;;;;5083063;28;20178;-67
2021/08/07 06:00:35;;;;;;;1.10;1.00;;;24.40;63.00;;;;;;5095058;28;20250;-67
2021/08/07 06:03:02;;;;;;;2.97;0.80;;;24.30;62.90;;;;;;5094310;28;20208;-68
2021/08/07 06:05:30;;;;;;;3.40;1.00;;;23.80;63.80;;;;;;5094759;28;20174;-66
2021/08/07 06:07:57;;;;;;;1.90;0.90;;;24.00;63.50;;;;;;5093945;28;20183;-68
2021/08/07 06:10:24;;;;;;;1.90;1.07;;;24.10;63.70;;;;;;5088861;28;20214;-68
2021/08/07 06:12:52;;;;;;;2.40;1.00;;;23.80;64.00;;;;;;5094828;28;20655;-68
2021/08/07 06:15:19;;;;;;;1.53;1.17;;;23.50;64.70;;;;;;5091823;28;20273;-68
2021/08/07 06:17:47;;;;;;;6.93;2.47;;;22.80;65.50;;;;;;5094739;28;20175;-67
2021/08/07 06:20:14;;;;;;;2.20;1.47;;;22.10;66.90;;;;;;5094290;28;20210;-67
2021/08/07 06:22:42;;;;;;;2.07;0.90;;;21.90;67.30;;;;;;5094162;28;20190;-67
2021/08/07 06:25:09;;;;;;;2.07;1.10;;;21.10;67.90;;;;;;5094309;28;20182;-67
2021/08/07 06:27:37;;;;;;;2.97;1.13;;;20.40;69.80;;;;;;5094603;28;20265;-67
2021/08/07 06:30:05;;;;;;;4.93;1.30;;;20.30;70.50;;;;;;5094589;28;20182;-67
2021/08/07 06:32:32;;;;;;;7.00;2.27;;;20.20;71.40;;;;;;5089353;28;20183;-67
2021/08/07 06:34:59;;;;;;;2.13;1.40;;;20.20;70.70;;;;;;5093909;28;20329;-69
2021/08/07 06:37:27;;;;;;;1.77;1.40;;;20.00;70.50;;;;;;5094895;28;20186;-68
2021/08/07 06:39:54;;;;;;;2.87;1.33;;;19.80;71.40;;;;;;5093836;28;20220;-69
2021/08/07 06:42:21;;;;;;;6.80;1.83;;;19.50;72.50;;;;;;5094168;28;20186;-69
2021/08/07 06:44:49;;;;;;;2.53;1.20;;;19.40;72.80;;;;;;5094430;28;20543;-69
2021/08/07 06:47:16;;;;;;;1.90;1.10;;;19.10;72.90;;;;;;5094257;28;20178;-67
2021/08/07 06:49:43;;;;;;;2.13;1.43;;;18.90;73.50;;;;;;5093767;28;20210;-67
2021/08/07 06:52:11;;;;;;;1.70;1.27;;;18.90;74.10;;;;;;5093273;28;20182;-69
2021/08/07 06:54:38;;;;;;;2.83;1.60;;;18.90;74.70;;;;;;5092450;28;20648;-67
2021/08/07 06:57:06;;;;;;;2.07;1.30;;;18.90;75.00;;;;;;5090940;28;20189;-67
2021/08/07 06:59:33;;;;;;;3.47;1.73;;;18.80;74.30;;;;;;5079038;28;20265;-67
2021/08/07 07:02:00;;;;;;;2.40;1.40;;;18.70;74.20;;;;;;5090381;28;20252;-68
2021/08/07 07:04:29;;;;;;;2.07;1.63;;;18.70;74.70;;;;;;5091301;28;20223;-70
2021/08/07 07:06:57;;;;;;;2.57;1.50;;;18.60;74.80;;;;;;5093513;28;20239;-68
2021/08/07 07:09:24;;;;;;;5.47;1.90;;;18.60;75.00;;;;;;5094178;28;20180;-67
2021/08/07 07:11:51;;;;;;;4.97;2.20;;;18.50;74.70;;;;;;5093968;28;20273;-67
2021/08/07 07:14:19;;;;;;;2.40;1.77;;;18.40;75.00;;;;;;5092405;28;20575;-66
2021/08/07 07:16:47;;;;;;;2.80;1.60;;;18.30;74.90;;;;;;5091980;28;20284;-67
2021/08/07 07:19:15;;;;;;;7.03;1.80;;;18.20;75.50;;;;;;5093347;28;20177;-68
2021/08/07 07:21:43;;;;;;;2.53;2.10;;;18.10;75.90;;;;;;5093390;28;20218;-67
2021/08/07 07:24:10;;;;;;;2.80;2.00;;;18.00;76.50;;;;;;5093666;28;20179;-67
2021/08/07 07:26:38;;;;;;;3.57;2.57;;;17.90;76.60;;;;;;5093934;28;20189;-67
2021/08/07 07:29:05;;;;;;;4.17;3.10;;;17.80;76.90;;;;;;5092324;28;20189;-67
2021/08/07 07:31:32;;;;;;;5.47;2.07;;;17.70;76.80;;;;;;5093798;28;20243;-67
2021/08/07 07:34:00;;;;;;;2.77;1.60;;;17.60;76.80;;;;;;5092027;28;20192;-68
2021/08/07 07:36:27;;;;;;;2.63;1.77;;;17.40;76.70;;;;;;5093225;28;20178;-67
2021/08/07 07:38:54;;;;;;;5.40;2.60;;;17.40;77.20;;;;;;5090484;28;20554;-67
2021/08/07 07:41:22;;;;;;;5.43;3.63;;;17.30;77.30;;;;;;5079534;28;20226;-67
2021/08/07 07:43:49;;;;;;;4.50;2.47;;;17.20;77.50;;;;;;5090727;28;20552;-68
2021/08/07 07:46:16;;;;;;;4.83;2.37;;;17.10;77.90;;;;;;5087740;28;20280;-67
2021/08/07 07:48:44;;;;;;;6.47;2.30;;;17.00;78.10;;;;;;5091735;28;20237;-67
2021/08/07 07:51:11;;;;;;;3.87;2.60;;;17.00;78.30;;;;;;5091885;28;20216;-68
2021/08/07 07:53:38;;;;;;;3.53;2.13;;;16.90;78.60;;;;;;5093216;28;20184;-66
2021/08/07 07:56:06;;;;;;;12.23;3.53;;;16.90;79.60;;;;;;5092828;28;20547;-68
2021/08/07 07:58:33;;;;;;;4.23;2.60;;;16.80;79.00;;;;;;5085236;28;20189;-68
2021/08/07 08:01:00;;;;;;;7.50;2.87;;;16.70;79.30;;;;;;5079697;28;20261;-68
2021/08/07 08:03:28;;;;;;;6.60;3.43;;;16.70;80.00;;;;;;5073275;28;20301;-67
2021/08/07 08:05:55;;;;;;;5.27;2.70;;;16.70;81.30;;;;;;5077559;28;20191;-67
2021/08/07 08:08:22;;;;;;;6.17;2.30;;;16.60;82.70;;;;;;5079231;28;20174;-67
2021/08/07 08:10:50;;;;;;;6.20;2.80;;;16.50;83.80;;;;;;5067550;28;20176;-69
2021/08/07 08:13:19;;;;;;;9.57;4.30;;;16.50;84.70;;;;;;5064609;28;20202;-68
2021/08/07 08:15:47;;;;;;;11.73;4.43;;;16.40;85.80;;;;;;5062112;28;20184;-68
2021/08/07 08:18:15;;;;;;;4.67;2.80;;;16.40;85.90;;;;;;5063625;28;20203;-68
2021/08/07 08:20:43;;;;;;;5.97;2.30;;;16.20;86.60;;;;;;5075069;28;20211;-67
2021/08/07 08:23:11;;;;;;;5.33;2.43;;;16.20;87.30;;;;;;5071873;28;20183;-67
2021/08/07 08:25:38;;;;;;;9.07;4.80;;;16.10;88.00;;;;;;5072409;28;20229;-67
2021/08/07 08:28:07;;;;;;;8.27;4.70;;;16.00;88.70;;;;;;5072226;28;20256;-68
2021/08/07 08:30:35;;;;;;;5.00;3.10;;;15.90;88.50;;;;;;5061256;28;20206;-68
2021/08/07 08:33:02;;;;;;;7.90;4.07;;;15.90;87.90;;;;;;5076544;28;20195;-68
2021/08/07 08:35:29;;;;;;;9.83;4.00;;;15.90;88.50;;;;;;5074594;28;20187;-66
2021/08/07 08:37:57;;;;;;;8.57;3.93;;;15.80;87.80;;;;;;5081171;28;20651;-67
2021/08/07 08:40:25;;;;;;;4.47;3.37;;;15.70;87.60;;;;;;5059323;28;20323;-66
2021/08/07 08:42:52;;;;;;;5.17;3.23;;;15.70;87.20;;;;;;5057610;28;20175;-67
2021/08/07 08:45:20;;;;;;;7.60;3.40;;;15.70;87.20;;;;;;5069257;28;20175;-67
2021/08/07 08:47:48;;;;;;;3.60;2.60;;;15.60;87.00;;;;;;5069905;28;20226;-69
2021/08/07 08:50:17;;;;;;;4.77;3.20;;;15.60;86.70;;;;;;5073366;28;20729;-67
2021/08/07 08:52:45;;;;;;;5.73;2.73;;;15.50;86.60;;;;;;5089044;28;20194;-68
2021/08/07 08:55:13;;;;;;;4.13;2.93;;;15.60;86.90;;;;;;5083116;28;20168;-69
2021/08/07 08:57:40;;;;;;;5.50;3.97;;;15.50;86.20;;;;;;5060158;28;20634;-68
2021/08/07 09:00:10;;;;;;;5.17;3.17;;;15.40;86.40;;;;;;5074488;28;20617;-66
2021/08/07 09:02:39;;;;;;;6.90;3.60;;;15.40;86.40;;;;;;5092647;28;20189;-68
2021/08/07 09:05:09;;;;;;;3.63;2.30;;;15.40;86.50;;;;;;5090860;28;20678;-67
2021/08/07 09:07:37;;;;;;;2.60;1.70;;;15.20;85.70;;;;;;5092188;28;20171;-67
2021/08/07 09:10:06;;;;;;;3.53;2.10;;;15.20;85.60;;;;;;5092398;28;20185;-66
2021/08/07 09:12:44;;;;;;;3.63;1.80;;;15.10;85.70;;;;;;5088303;28;20179;-67
2021/08/07 09:15:38;;;;;;;3.50;2.10;;;15.00;85.70;;;;;;5085347;28;20182;-68
2021/08/07 09:18:12;;;;;;;4.47;2.10;;;15.00;85.90;;;;;;5078924;28;20187;-67
2021/08/07 09:20:42;;;;;;;2.87;1.63;;;14.90;85.60;;;;;;5090615;28;20198;-67
2021/08/07 09:23:10;;;;;;;2.20;1.50;;;14.80;85.60;;;;;;5092550;28;20597;-67
2021/08/07 09:25:42;;;;;;;3.10;1.43;;;14.80;85.80;;;;;;5094161;28;20193;-67
2021/08/07 09:28:10;;;;;;;2.97;1.90;;;14.70;86.20;;;;;;5093630;28;20182;-68
2021/08/07 09:30:41;;;;;;;2.57;1.77;;;14.60;86.00;;;;;;5095266;28;20179;-66
2021/08/07 09:33:09;;;;;;;3.17;2.20;;;14.60;86.20;;;;;;5094938;28;20541;-66
2021/08/07 09:35:38;;;;;;;4.57;2.20;;;14.60;86.70;;;;;;5094685;28;20177;-67
2021/08/07 09:38:30;;;;;;;3.57;1.80;;;14.50;86.50;;;;;;5094069;28;20179;-67
2021/08/07 09:41:02;;;;;;;3.13;1.50;;;14.50;86.80;;;;;;5095177;28;20571;-67
2021/08/07 09:43:35;;;;;;;2.07;1.60;;;14.40;87.00;;;;;;5078309;28;20183;-67
2021/08/07 09:46:15;;;;;;;2.17;1.40;;;14.30;86.90;;;;;;5094443;28;20171;-67
2021/08/07 09:48:46;;;;;;;3.87;2.03;;;14.30;87.90;;;;;;5087475;28;20704;-67
2021/08/07 09:51:23;;;;;;;3.80;1.23;;;14.20;87.40;;;;;;5094194;28;20187;-67
2021/08/07 09:54:19;;;;;;;1.43;1.33;;;14.20;87.70;;;;;;5088674;28;20613;-67
2021/08/07 09:56:53;;;;;;;1.30;1.00;;;14.10;87.80;;;;;;5091036;28;20187;-66
2021/08/07 09:59:26;;;;;;;2.20;1.20;;;14.10;88.10;;;;;;5091437;28;20222;-67
2021/08/07 10:01:56;;;;;;;3.53;1.20;;;14.00;88.20;;;;;;5095325;28;20229;-67
2021/08/07 10:04:24;;;;;;;1.50;0.97;;;14.00;88.50;;;;;;5095326;28;20621;-67
2021/08/07 10:07:09;;;;;;;2.00;1.20;;;14.00;88.60;;;;;;5094214;28;20189;-67
2021/08/07 10:09:37;;;;;;;3.17;1.30;;;13.90;88.60;;;;;;5095566;28;20261;-67
2021/08/07 10:12:10;;;;;;;1.53;1.03;;;13.90;88.80;;;;;;5094779;28;20178;-66
2021/08/07 10:14:40;;;;;;;3.80;1.73;;;13.90;89.20;;;;;;5094874;28;20190;-68
2021/08/07 10:17:10;;;;;;;2.43;1.40;;;13.90;89.30;;;;;;5092214;28;20194;-68
2021/08/07 10:19:38;;;;;;;2.23;1.00;;;13.80;89.40;;;;;;5094795;28;20265;-67
2021/08/07 10:22:09;;;;;;;1.97;1.37;;;13.80;89.40;;;;;;5094655;28;20668;-67
2021/08/07 10:24:39;;;;;;;1.50;1.30;;;13.70;89.60;;;;;;5095503;28;20175;-67
2021/08/07 10:27:07;;;;;;;1.57;1.10;;;13.70;89.70;;;;;;5094459;28;20201;-67
2021/08/07 10:29:55;;;;;;;1.40;1.13;;;13.70;89.80;;;;;;5088207;28;20304;-67
2021/08/07 10:32:25;;;;;;;2.90;1.30;;;13.70;89.70;;;;;;5089534;28;20181;-67
2021/08/07 10:34:53;;;;;;;2.73;1.80;;;13.70;89.70;;;;;;5094120;28;20187;-67
2021/08/07 10:37:21;;;;;;;3.10;1.20;;;13.70;89.90;;;;;;5094679;28;20202;-66
2021/08/07 10:39:50;;;;;;;5.07;1.27;;;13.70;90.00;;;;;;5095044;28;20175;-66
2021/08/07 10:42:19;;;;;;;1.63;0.90;;;13.70;90.00;;;;;;5094049;28;20214;-66
2021/08/07 10:44:47;;;;;;;1.20;0.97;;;13.70;90.10;;;;;;5093880;28;20179;-67
2021/08/07 10:47:33;;;;;;;1.67;1.27;;;13.70;90.00;;;;;;5094433;28;20182;-68
2021/08/07 10:50:00;;;;;;;4.13;1.30;;;13.70;90.00;;;;;;5094295;28;20186;-67
2021/08/07 10:52:28;;;;;;;1.60;1.30;;;13.70;90.00;;;;;;5094292;28;20630;-66
2021/08/07 10:54:55;;;;;;;3.77;1.20;;;13.70;90.10;;;;;;5093882;28;20179;-69
2021/08/07 10:57:42;;;;;;;1.17;0.90;;;13.70;90.10;;;;;;5086774;28;20190;-66
2021/08/07 11:00:15;;;;;;;2.10;1.30;;;13.70;90.10;;;;;;5087043;28;20234;-67
2021/08/07 11:02:43;;;;;;;3.73;1.10;;;13.70;90.10;;;;;;5086563;28;20544;-67
2021/08/07 11:05:11;;;;;;;2.00;1.17;;;13.70;90.20;;;;;;5089359;28;20187;-66
2021/08/07 11:07:39;;;;;;;1.17;0.93;;;13.70;90.20;;;;;;5093594;28;20632;-67
2021/08/07 11:10:15;;;;;;;2.53;1.07;;;13.70;90.10;;;;;;5093045;28;20189;-66
2021/08/07 11:12:47;;;;;;;1.47;1.10;;;13.70;90.20;;;;;;5081279;28;20178;-70
2021/08/07 11:15:29;;;;;;;1.10;0.97;;;13.70;90.20;;;;;;5094109;28;21321;-67
2021/08/07 11:17:56;;;;;;;2.80;1.13;;;13.70;90.30;;;;;;5093856;28;20207;-70
2021/08/07 11:20:39;;;;;;;3.40;1.10;;;13.70;90.30;;;;;;5094090;28;20202;-68
2021/08/07 11:23:09;;;;;;;1.30;1.03;;;13.70;90.40;;;;;;5095150;28;20197;-68
2021/08/07 11:25:57;;;;;;;1.70;1.10;;;13.70;90.40;;;;;;5094624;28;20533;-67
2021/08/07 11:28:25;;;;;;;2.10;1.10;;;13.70;90.40;;;;;;5094236;28;20182;-67
2021/08/07 11:31:17;;;;;;;1.60;0.90;;;13.60;90.40;;;;;;5094145;28;20281;-68
2021/08/07 11:33:44;;;;;;;1.90;1.00;;;13.60;90.60;;;;;;5094672;28;20210;-67
2021/08/07 11:36:19;;;;;;;2.60;0.80;;;13.60;90.50;;;;;;5091821;28;20189;-66
2021/08/07 11:39:00;;;;;;;1.87;1.00;;;13.60;90.50;;;;;;5093638;28;20310;-67
2021/08/07 11:41:33;;;;;;;1.90;1.00;;;13.60;90.70;;;;;;5092514;28;20945;-67
2021/08/07 11:44:02;;;;;;;1.20;1.10;;;13.50;90.70;;;;;;5092773;28;20228;-66
2021/08/07 11:46:35;;;;;;;1.40;0.90;;;13.50;90.60;;;;;;5092592;28;20189;-68
2021/08/07 11:49:02;;;;;;;1.03;0.93;;;13.50;90.80;;;;;;5092970;28;20819;-67
2021/08/07 11:51:32;;;;;;;2.10;1.00;;;13.50;90.80;;;;;;5093700;28;20204;-67
2021/08/07 11:54:00;;;;;;;2.40;1.00;;;13.50;90.90;;;;;;5094143;28;20535;-67
2021/08/07 11:56:34;;;;;;;1.00;0.80;;;13.50;90.90;;;;;;5092557;28;20672;-68
2021/08/07 11:59:02;;;;;;;0.90;0.80;;;13.40;90.90;;;;;;5086893;28;20563;-68
2021/08/07 12:01:33;;;;;;;1.00;0.90;;;13.40;91.00;;;;;;5093152;28;20261;-67
2021/08/07 12:04:01;;;;;;;0.90;0.73;;;13.40;91.00;;;;;;5093379;28;20543;-68
2021/08/07 12:06:30;;;;;;;1.50;1.07;;;13.50;91.00;;;;;;5092887;28;20205;-68
2021/08/07 12:08:58;;;;;;;1.43;0.70;;;13.40;91.00;;;;;;5091399;28;20542;-71
2021/08/07 12:11:26;;;;;;;1.73;1.00;;;13.40;91.00;;;;;;5093221;28;20702;-68
2021/08/07 12:13:56;;;;;;;1.10;0.90;;;13.40;91.10;;;;;;5093261;28;20175;-67
2021/08/07 12:16:31;;;;;;;0.70;0.70;;;13.40;91.10;;;;;;5090249;28;20178;-68
2021/08/07 12:19:01;;;;;;;2.73;0.90;;;13.30;91.30;;;;;;5092387;28;20189;-68
2021/08/07 12:21:30;;;;;;;0.87;0.77;;;13.20;91.40;;;;;;5092248;28;20566;-68
2021/08/07 12:24:10;;;;;;;1.73;0.97;;;13.20;91.60;;;;;;5092758;28;20201;-66
2021/08/07 12:26:57;;;;;;;0.90;0.80;;;13.10;91.70;;;;;;5080911;28;21079;-68
2021/08/07 12:29:29;;;;;;;1.00;0.80;;;13.10;91.80;;;;;;5089374;28;20175;-66
2021/08/07 12:31:58;;;;;;;1.93;0.80;;;13.10;91.80;;;;;;5088664;28;20538;-67
2021/08/07 12:34:27;;;;;;;1.13;0.87;;;13.00;91.90;;;;;;5091056;28;20182;-67
2021/08/07 12:37:02;;;;;;;2.07;0.90;;;13.00;91.90;;;;;;5092683;28;20194;-67
2021/08/07 12:39:43;;;;;;;1.57;0.80;;;13.00;92.00;;;;;;5080456;28;20323;-66
2021/08/07 12:42:14;;;;;;;1.03;0.93;;;13.00;92.00;;;;;;5092069;28;20570;-67
2021/08/07 12:44:43;;;;;;;1.90;0.90;;;13.00;92.10;;;;;;5093007;28;20516;-68
2021/08/07 12:47:11;;;;;;;3.90;1.00;;;12.90;92.10;;;;;;5091963;28;20592;-67
2021/08/07 12:49:42;;;;;;;0.73;0.73;;;12.80;92.30;;;;;;5092887;28;20202;-67
2021/08/07 12:52:16;;;;;;;0.90;0.90;;;12.80;92.40;;;;;;5090446;28;20188;-67
2021/08/07 12:54:45;;;;;;;1.63;1.10;;;12.70;92.50;;;;;;5092086;28;20181;-67
2021/08/07 12:57:26;;;;;;;2.27;1.00;;;12.70;92.60;;;;;;5075290;28;20179;-66
2021/08/07 12:59:55;;;;;;;1.10;0.80;;;12.60;92.80;;;;;;5118265;27;20283;-67
2021/08/07 13:02:25;;;;;;;3.40;0.90;;;12.60;92.90;;;;;;5080034;28;20214;-68
2021/08/07 13:04:57;;;;;;;0.97;0.80;;;12.60;92.90;;;;;;5091913;28;20236;-69
2021/08/07 13:07:34;;;;;;;1.10;0.93;;;12.60;93.00;;;;;;5078164;28;20261;-66
2021/08/07 13:10:21;;;;;;;5.57;1.53;;;12.60;93.10;;;;;;5092127;28;20546;-66
2021/08/07 13:12:50;;;;;;;1.67;1.10;;;12.60;93.10;;;;;;5071801;28;20637;-67
2021/08/07 13:15:17;;;;;;;1.03;0.90;;;12.50;93.10;;;;;;5085182;28;20648;-66
2021/08/07 13:17:48;;;;;;;1.20;1.10;;;12.50;93.20;;;;;;5092169;28;20689;-67
2021/08/07 13:20:35;;;;;;;2.50;1.00;;;12.60;93.30;;;;;;5091897;28;20544;-67
2021/08/07 13:23:03;;;;;;;1.00;0.90;;;12.50;93.30;;;;;;5091508;28;20194;-67
2021/08/07 13:25:31;;;;;;;1.30;0.93;;;12.60;93.40;;;;;;5091176;28;20210;-67
2021/08/07 13:28:16;;;;;;;1.10;0.90;;;12.60;93.30;;;;;;5091279;28;20180;-66
2021/08/07 13:30:54;;;;;;;2.00;1.03;;;12.60;93.20;;;;;;5091529;28;20624;-67